Hauptseite
METAR-TAF:

METAR-TAF

Flughäfen :

Kuwait-Stadt, Kuwait

Flughafen Kuwait

Breite: 29-13N, Länge: 047-59E, Höhe: 55 m

Beobachtung

Neuester Wetterbericht von vor 16 Minuten, um 12:00 UTC
Wind 14 kt aus Südost
Temperatur 36°C
Luftfeuchtigkeit 15%
Luftdruck 1007 hPa
Sichtweite: 7000 m
Himmel klar

METAR: OKBK 281200Z 13014KT 7000 SKC 36/05 Q1007 NOSIG

Zeit: 15:16 (12:16 UTC)

Prognose

Neuester Wetterbericht von vor 1 Stunde und 31 Minuten, um 10:45 UTC
Gültige Prognose vom 28 um 12 UTC bis 29 um 18 UTC
Wind 10 kt aus Ost/Südost
Sichtweite: 7000 m
Zeitweise
vom 28 um 18 UTC bis 29 um 04 UTC
Leicht bewölkt in der Höhe von 4000 ft
Aufgelockert bewölkt in der Höhe von 8000 ft
Leichtregen

TAF: OKBK 281045Z 2812/2918 12010KT 7000 NSC TEMPO 2818/2904 -RA FEW040 SCT080

Wetterbeobachtungen und Prognosen von mehr als 4000 Flughäfen (METAR und TAF Bericht).

Die verfügbaren Stationen werden durch gelbe und rote Markierungen auf der Karte dargestellt.

Führen Sie die Maus auf sie, um den Namen der Station zu sehen.

Darauf klicken, um die Beobachtung von Wetterbeobachtungen und Prognosen zu sehen.

Um die Karte zu ändern : klicken Sie auf den grünen Tasten mit einem schwarzen Kreuz Zum Vergrößern, auf den grünen Button mit einem Gedankenstrich zu verkleinern, oder auf die grünen Pfeile für benachbarte Karten.


METAR-TAF: